sensor_id;sensor_type;location;lat;lon;timestamp;P1;durP1;ratioP1;P2;durP2;ratioP2
12814;SDS011;6472;52.328;13.070;2023-09-30T00:02:26;3.93;;;1.60;;
12814;SDS011;6472;52.328;13.070;2023-09-30T00:04:54;6.07;;;1.80;;
12814;SDS011;6472;52.328;13.070;2023-09-30T00:07:23;3.27;;;1.47;;
12814;SDS011;6472;52.328;13.070;2023-09-30T00:09:51;4.23;;;1.73;;
12814;SDS011;6472;52.328;13.070;2023-09-30T00:12:19;6.27;;;1.77;;
12814;SDS011;6472;52.328;13.070;2023-09-30T00:14:47;5.07;;;1.60;;
12814;SDS011;6472;52.328;13.070;2023-09-30T00:17:16;3.43;;;1.83;;
12814;SDS011;6472;52.328;13.070;2023-09-30T00:19:45;5.67;;;1.60;;
12814;SDS011;6472;52.328;13.070;2023-09-30T00:22:13;4.13;;;1.80;;
12814;SDS011;6472;52.328;13.070;2023-09-30T00:24:41;8.27;;;2.33;;
12814;SDS011;6472;52.328;13.070;2023-09-30T00:27:10;4.30;;;2.00;;
12814;SDS011;6472;52.328;13.070;2023-09-30T00:29:38;6.00;;;1.97;;
12814;SDS011;6472;52.328;13.070;2023-09-30T00:32:06;9.53;;;2.17;;
12814;SDS011;6472;52.328;13.070;2023-09-30T00:34:36;5.80;;;1.80;;
12814;SDS011;6472;52.328;13.070;2023-09-30T00:37:04;3.30;;;1.97;;
12814;SDS011;6472;52.328;13.070;2023-09-30T00:39:33;7.07;;;2.00;;
12814;SDS011;6472;52.328;13.070;2023-09-30T00:42:01;6.00;;;1.87;;
12814;SDS011;6472;52.328;13.070;2023-09-30T00:44:30;5.83;;;1.80;;
12814;SDS011;6472;52.328;13.070;2023-09-30T00:46:59;7.07;;;2.10;;
12814;SDS011;6472;52.328;13.070;2023-09-30T00:49:28;6.63;;;1.80;;
12814;SDS011;6472;52.328;13.070;2023-09-30T00:51:58;3.57;;;1.60;;
12814;SDS011;6472;52.328;13.070;2023-09-30T00:54:28;3.20;;;1.43;;
12814;SDS011;6472;52.328;13.070;2023-09-30T00:56:57;4.53;;;1.93;;
12814;SDS011;6472;52.328;13.070;2023-09-30T00:59:27;4.57;;;1.80;;
12814;SDS011;6472;52.328;13.070;2023-09-30T01:01:59;2.63;;;1.53;;
12814;SDS011;6472;52.328;13.070;2023-09-30T01:04:28;8.00;;;2.10;;
12814;SDS011;6472;52.328;13.070;2023-09-30T01:06:58;4.07;;;1.53;;
12814;SDS011;6472;52.328;13.070;2023-09-30T01:09:26;6.93;;;1.77;;
12814;SDS011;6472;52.328;13.070;2023-09-30T01:11:54;3.87;;;1.70;;
12814;SDS011;6472;52.328;13.070;2023-09-30T01:14:23;8.93;;;2.97;;
12814;SDS011;6472;52.328;13.070;2023-09-30T01:16:52;8.80;;;1.93;;
12814;SDS011;6472;52.328;13.070;2023-09-30T01:19:20;3.57;;;1.83;;
12814;SDS011;6472;52.328;13.070;2023-09-30T01:21:50;2.63;;;2.00;;
12814;SDS011;6472;52.328;13.070;2023-09-30T01:24:21;6.63;;;2.20;;
12814;SDS011;6472;52.328;13.070;2023-09-30T01:26:49;3.00;;;1.73;;
12814;SDS011;6472;52.328;13.070;2023-09-30T01:29:17;4.67;;;1.97;;
12814;SDS011;6472;52.328;13.070;2023-09-30T01:31:48;4.23;;;2.07;;
12814;SDS011;6472;52.328;13.070;2023-09-30T01:34:17;6.83;;;1.93;;
12814;SDS011;6472;52.328;13.070;2023-09-30T01:36:46;5.27;;;2.00;;
12814;SDS011;6472;52.328;13.070;2023-09-30T01:39:15;3.50;;;2.30;;
12814;SDS011;6472;52.328;13.070;2023-09-30T01:41:44;5.37;;;2.33;;
12814;SDS011;6472;52.328;13.070;2023-09-30T01:44:12;2.57;;;1.97;;
12814;SDS011;6472;52.328;13.070;2023-09-30T01:46:40;9.57;;;2.20;;
12814;SDS011;6472;52.328;13.070;2023-09-30T01:49:08;6.07;;;2.27;;
12814;SDS011;6472;52.328;13.070;2023-09-30T01:51:36;9.07;;;2.10;;
12814;SDS011;6472;52.328;13.070;2023-09-30T01:54:04;5.73;;;1.90;;
12814;SDS011;6472;52.328;13.070;2023-09-30T01:56:35;6.60;;;2.17;;
12814;SDS011;6472;52.328;13.070;2023-09-30T01:59:03;4.33;;;2.27;;
12814;SDS011;6472;52.328;13.070;2023-09-30T02:01:31;11.07;;;2.40;;
12814;SDS011;6472;52.328;13.070;2023-09-30T02:04:00;11.47;;;2.43;;
12814;SDS011;6472;52.328;13.070;2023-09-30T02:06:29;4.77;;;1.87;;
12814;SDS011;6472;52.328;13.070;2023-09-30T02:08:57;3.73;;;1.53;;
12814;SDS011;6472;52.328;13.070;2023-09-30T02:11:25;8.77;;;3.10;;
12814;SDS011;6472;52.328;13.070;2023-09-30T02:13:55;8.30;;;2.57;;
12814;SDS011;6472;52.328;13.070;2023-09-30T02:16:23;5.83;;;2.20;;
12814;SDS011;6472;52.328;13.070;2023-09-30T02:18:52;5.80;;;2.67;;
12814;SDS011;6472;52.328;13.070;2023-09-30T02:21:20;7.13;;;2.30;;
12814;SDS011;6472;52.328;13.070;2023-09-30T02:23:49;5.17;;;2.90;;
12814;SDS011;6472;52.328;13.070;2023-09-30T02:26:22;4.40;;;2.27;;
12814;SDS011;6472;52.328;13.070;2023-09-30T02:28:51;7.90;;;3.43;;
12814;SDS011;6472;52.328;13.070;2023-09-30T02:31:20;8.30;;;3.00;;
12814;SDS011;6472;52.328;13.070;2023-09-30T02:33:49;6.47;;;2.23;;
12814;SDS011;6472;52.328;13.070;2023-09-30T02:36:17;6.83;;;2.53;;
12814;SDS011;6472;52.328;13.070;2023-09-30T02:38:45;7.00;;;2.97;;
12814;SDS011;6472;52.328;13.070;2023-09-30T02:41:15;7.57;;;2.50;;
12814;SDS011;6472;52.328;13.070;2023-09-30T02:43:44;11.83;;;3.37;;
12814;SDS011;6472;52.328;13.070;2023-09-30T02:46:12;8.77;;;2.63;;
12814;SDS011;6472;52.328;13.070;2023-09-30T02:48:42;5.53;;;2.07;;
12814;SDS011;6472;52.328;13.070;2023-09-30T02:51:10;6.57;;;2.63;;
12814;SDS011;6472;52.328;13.070;2023-09-30T02:53:39;5.47;;;2.73;;
12814;SDS011;6472;52.328;13.070;2023-09-30T02:56:07;5.60;;;2.40;;
12814;SDS011;6472;52.328;13.070;2023-09-30T02:58:36;7.73;;;2.07;;
12814;SDS011;6472;52.328;13.070;2023-09-30T03:01:06;7.83;;;2.17;;
12814;SDS011;6472;52.328;13.070;2023-09-30T03:03:36;6.03;;;2.27;;
12814;SDS011;6472;52.328;13.070;2023-09-30T03:06:08;7.50;;;2.60;;
12814;SDS011;6472;52.328;13.070;2023-09-30T03:08:36;6.67;;;2.27;;
12814;SDS011;6472;52.328;13.070;2023-09-30T03:11:05;6.43;;;2.30;;
12814;SDS011;6472;52.328;13.070;2023-09-30T03:13:33;8.07;;;2.90;;
12814;SDS011;6472;52.328;13.070;2023-09-30T03:16:01;6.60;;;2.57;;
12814;SDS011;6472;52.328;13.070;2023-09-30T03:18:30;6.00;;;2.60;;
12814;SDS011;6472;52.328;13.070;2023-09-30T03:20:59;6.40;;;2.67;;
12814;SDS011;6472;52.328;13.070;2023-09-30T03:23:30;9.27;;;3.00;;
12814;SDS011;6472;52.328;13.070;2023-09-30T03:25:58;11.40;;;3.10;;
12814;SDS011;6472;52.328;13.070;2023-09-30T03:28:26;13.00;;;3.07;;
12814;SDS011;6472;52.328;13.070;2023-09-30T03:30:55;11.37;;;2.53;;
12814;SDS011;6472;52.328;13.070;2023-09-30T03:33:23;9.13;;;3.20;;
12814;SDS011;6472;52.328;13.070;2023-09-30T03:35:53;6.97;;;2.40;;
12814;SDS011;6472;52.328;13.070;2023-09-30T03:38:21;6.97;;;2.87;;
12814;SDS011;6472;52.328;13.070;2023-09-30T03:40:50;5.30;;;2.20;;
12814;SDS011;6472;52.328;13.070;2023-09-30T03:43:21;12.13;;;3.07;;
12814;SDS011;6472;52.328;13.070;2023-09-30T03:45:50;6.87;;;2.50;;
12814;SDS011;6472;52.328;13.070;2023-09-30T03:48:20;8.57;;;2.27;;
12814;SDS011;6472;52.328;13.070;2023-09-30T03:50:48;5.90;;;2.30;;
12814;SDS011;6472;52.328;13.070;2023-09-30T03:53:16;6.77;;;2.23;;
12814;SDS011;6472;52.328;13.070;2023-09-30T03:55:44;13.23;;;2.77;;
12814;SDS011;6472;52.328;13.070;2023-09-30T03:58:13;10.40;;;3.13;;
12814;SDS011;6472;52.328;13.070;2023-09-30T04:00:42;6.50;;;2.40;;
12814;SDS011;6472;52.328;13.070;2023-09-30T04:03:10;11.27;;;2.70;;
12814;SDS011;6472;52.328;13.070;2023-09-30T04:05:38;9.73;;;2.70;;
12814;SDS011;6472;52.328;13.070;2023-09-30T04:08:06;6.57;;;2.57;;
12814;SDS011;6472;52.328;13.070;2023-09-30T04:10:34;8.23;;;2.80;;
12814;SDS011;6472;52.328;13.070;2023-09-30T04:13:03;10.07;;;2.67;;
12814;SDS011;6472;52.328;13.070;2023-09-30T04:15:32;5.83;;;2.30;;
12814;SDS011;6472;52.328;13.070;2023-09-30T04:18:03;5.50;;;2.43;;
12814;SDS011;6472;52.328;13.070;2023-09-30T04:20:32;6.20;;;2.30;;
12814;SDS011;6472;52.328;13.070;2023-09-30T04:23:00;11.20;;;3.23;;
12814;SDS011;6472;52.328;13.070;2023-09-30T04:25:28;6.03;;;2.70;;
12814;SDS011;6472;52.328;13.070;2023-09-30T04:27:57;5.00;;;2.17;;
12814;SDS011;6472;52.328;13.070;2023-09-30T04:30:25;3.17;;;2.13;;
12814;SDS011;6472;52.328;13.070;2023-09-30T04:32:55;11.63;;;3.50;;
12814;SDS011;6472;52.328;13.070;2023-09-30T04:35:25;12.53;;;3.00;;
12814;SDS011;6472;52.328;13.070;2023-09-30T04:37:53;4.27;;;2.13;;
12814;SDS011;6472;52.328;13.070;2023-09-30T04:40:21;10.07;;;2.53;;
12814;SDS011;6472;52.328;13.070;2023-09-30T04:42:49;8.97;;;2.30;;
12814;SDS011;6472;52.328;13.070;2023-09-30T04:45:17;6.40;;;2.47;;
12814;SDS011;6472;52.328;13.070;2023-09-30T04:47:47;10.63;;;2.73;;
12814;SDS011;6472;52.328;13.070;2023-09-30T04:50:18;6.70;;;2.27;;
12814;SDS011;6472;52.328;13.070;2023-09-30T04:52:49;8.17;;;2.37;;
12814;SDS011;6472;52.328;13.070;2023-09-30T04:55:18;5.17;;;2.10;;
12814;SDS011;6472;52.328;13.070;2023-09-30T04:57:46;2.57;;;2.23;;
12814;SDS011;6472;52.328;13.070;2023-09-30T05:00:16;5.70;;;2.83;;
12814;SDS011;6472;52.328;13.070;2023-09-30T05:02:49;6.40;;;2.50;;
12814;SDS011;6472;52.328;13.070;2023-09-30T05:05:18;10.13;;;2.70;;
12814;SDS011;6472;52.328;13.070;2023-09-30T05:07:47;8.73;;;3.33;;
12814;SDS011;6472;52.328;13.070;2023-09-30T05:10:15;5.60;;;2.00;;
12814;SDS011;6472;52.328;13.070;2023-09-30T05:12:43;4.17;;;2.17;;
12814;SDS011;6472;52.328;13.070;2023-09-30T05:15:14;4.57;;;2.60;;
12814;SDS011;6472;52.328;13.070;2023-09-30T05:17:43;5.00;;;2.70;;
12814;SDS011;6472;52.328;13.070;2023-09-30T05:20:13;8.37;;;2.57;;
12814;SDS011;6472;52.328;13.070;2023-09-30T05:22:45;4.00;;;1.70;;
12814;SDS011;6472;52.328;13.070;2023-09-30T05:25:16;5.60;;;2.43;;
12814;SDS011;6472;52.328;13.070;2023-09-30T05:27:45;6.97;;;2.60;;
12814;SDS011;6472;52.328;13.070;2023-09-30T05:30:15;5.13;;;2.60;;
12814;SDS011;6472;52.328;13.070;2023-09-30T05:32:46;5.30;;;2.20;;
12814;SDS011;6472;52.328;13.070;2023-09-30T05:35:15;5.43;;;2.70;;
12814;SDS011;6472;52.328;13.070;2023-09-30T05:37:45;5.17;;;2.33;;
12814;SDS011;6472;52.328;13.070;2023-09-30T05:40:13;11.87;;;3.07;;
12814;SDS011;6472;52.328;13.070;2023-09-30T05:42:50;5.07;;;2.60;;
12814;SDS011;6472;52.328;13.070;2023-09-30T05:45:18;8.07;;;2.57;;
12814;SDS011;6472;52.328;13.070;2023-09-30T05:47:47;6.37;;;2.27;;
12814;SDS011;6472;52.328;13.070;2023-09-30T05:50:17;6.37;;;2.33;;
12814;SDS011;6472;52.328;13.070;2023-09-30T05:52:53;7.57;;;2.73;;
12814;SDS011;6472;52.328;13.070;2023-09-30T05:55:22;6.60;;;2.50;;
12814;SDS011;6472;52.328;13.070;2023-09-30T05:57:53;9.27;;;2.80;;
12814;SDS011;6472;52.328;13.070;2023-09-30T06:00:22;6.67;;;2.80;;
12814;SDS011;6472;52.328;13.070;2023-09-30T06:02:55;7.63;;;2.67;;
12814;SDS011;6472;52.328;13.070;2023-09-30T06:05:24;6.37;;;2.80;;
12814;SDS011;6472;52.328;13.070;2023-09-30T06:07:54;10.27;;;3.07;;
12814;SDS011;6472;52.328;13.070;2023-09-30T06:10:22;5.57;;;2.33;;
12814;SDS011;6472;52.328;13.070;2023-09-30T06:12:52;9.07;;;2.60;;
12814;SDS011;6472;52.328;13.070;2023-09-30T06:15:22;8.73;;;2.60;;
12814;SDS011;6472;52.328;13.070;2023-09-30T06:17:53;6.17;;;2.40;;
12814;SDS011;6472;52.328;13.070;2023-09-30T06:20:22;7.87;;;2.73;;
12814;SDS011;6472;52.328;13.070;2023-09-30T06:22:55;10.17;;;3.80;;
12814;SDS011;6472;52.328;13.070;2023-09-30T06:25:23;8.37;;;3.03;;
12814;SDS011;6472;52.328;13.070;2023-09-30T06:27:52;13.73;;;2.77;;
12814;SDS011;6472;52.328;13.070;2023-09-30T06:30:21;9.33;;;3.03;;
12814;SDS011;6472;52.328;13.070;2023-09-30T06:32:56;9.03;;;2.77;;
12814;SDS011;6472;52.328;13.070;2023-09-30T06:35:27;8.90;;;2.40;;
12814;SDS011;6472;52.328;13.070;2023-09-30T06:37:58;10.70;;;3.13;;
12814;SDS011;6472;52.328;13.070;2023-09-30T06:40:27;6.77;;;2.97;;
12814;SDS011;6472;52.328;13.070;2023-09-30T06:42:55;7.07;;;2.57;;
12814;SDS011;6472;52.328;13.070;2023-09-30T06:45:24;7.63;;;2.40;;
12814;SDS011;6472;52.328;13.070;2023-09-30T06:47:53;10.10;;;2.83;;
12814;SDS011;6472;52.328;13.070;2023-09-30T06:50:23;7.87;;;2.80;;
12814;SDS011;6472;52.328;13.070;2023-09-30T06:52:51;6.67;;;2.73;;
12814;SDS011;6472;52.328;13.070;2023-09-30T06:55:21;10.97;;;3.03;;
12814;SDS011;6472;52.328;13.070;2023-09-30T06:57:51;5.40;;;2.57;;
12814;SDS011;6472;52.328;13.070;2023-09-30T07:00:19;9.67;;;3.03;;
12814;SDS011;6472;52.328;13.070;2023-09-30T07:02:47;8.80;;;3.73;;
12814;SDS011;6472;52.328;13.070;2023-09-30T07:05:15;10.63;;;2.80;;
12814;SDS011;6472;52.328;13.070;2023-09-30T07:07:44;6.73;;;2.20;;
12814;SDS011;6472;52.328;13.070;2023-09-30T07:10:12;16.03;;;3.93;;
12814;SDS011;6472;52.328;13.070;2023-09-30T07:12:42;5.70;;;2.37;;
12814;SDS011;6472;52.328;13.070;2023-09-30T07:15:10;10.70;;;2.77;;
12814;SDS011;6472;52.328;13.070;2023-09-30T07:17:40;6.50;;;2.53;;
12814;SDS011;6472;52.328;13.070;2023-09-30T07:20:11;7.60;;;3.83;;
12814;SDS011;6472;52.328;13.070;2023-09-30T07:22:39;10.27;;;2.80;;
12814;SDS011;6472;52.328;13.070;2023-09-30T07:25:24;6.47;;;2.53;;
12814;SDS011;6472;52.328;13.070;2023-09-30T07:27:54;7.60;;;2.93;;
12814;SDS011;6472;52.328;13.070;2023-09-30T07:30:22;6.37;;;2.13;;
12814;SDS011;6472;52.328;13.070;2023-09-30T07:32:51;7.73;;;3.10;;
12814;SDS011;6472;52.328;13.070;2023-09-30T07:35:20;6.13;;;2.60;;
12814;SDS011;6472;52.328;13.070;2023-09-30T07:37:48;9.63;;;2.80;;
12814;SDS011;6472;52.328;13.070;2023-09-30T07:40:19;5.90;;;2.23;;
12814;SDS011;6472;52.328;13.070;2023-09-30T07:42:48;10.20;;;2.67;;
12814;SDS011;6472;52.328;13.070;2023-09-30T07:45:19;7.97;;;2.93;;
12814;SDS011;6472;52.328;13.070;2023-09-30T07:47:48;8.57;;;2.87;;
12814;SDS011;6472;52.328;13.070;2023-09-30T07:50:17;6.30;;;2.90;;
12814;SDS011;6472;52.328;13.070;2023-09-30T07:52:45;9.40;;;2.67;;
12814;SDS011;6472;52.328;13.070;2023-09-30T07:55:13;6.63;;;2.43;;
12814;SDS011;6472;52.328;13.070;2023-09-30T07:57:42;8.90;;;2.60;;
12814;SDS011;6472;52.328;13.070;2023-09-30T08:00:11;5.40;;;1.97;;
12814;SDS011;6472;52.328;13.070;2023-09-30T08:02:44;5.07;;;2.67;;
12814;SDS011;6472;52.328;13.070;2023-09-30T08:05:12;2.57;;;1.70;;
12814;SDS011;6472;52.328;13.070;2023-09-30T08:07:40;6.50;;;2.87;;
12814;SDS011;6472;52.328;13.070;2023-09-30T08:10:09;8.47;;;2.37;;
12814;SDS011;6472;52.328;13.070;2023-09-30T08:12:40;6.60;;;3.23;;
12814;SDS011;6472;52.328;13.070;2023-09-30T08:15:09;6.23;;;2.30;;
12814;SDS011;6472;52.328;13.070;2023-09-30T08:17:39;5.57;;;2.30;;
12814;SDS011;6472;52.328;13.070;2023-09-30T08:20:09;8.80;;;2.93;;
12814;SDS011;6472;52.328;13.070;2023-09-30T08:22:38;9.80;;;2.80;;
12814;SDS011;6472;52.328;13.070;2023-09-30T08:25:07;7.90;;;2.60;;
12814;SDS011;6472;52.328;13.070;2023-09-30T08:27:36;6.47;;;2.63;;
12814;SDS011;6472;52.328;13.070;2023-09-30T08:30:06;8.07;;;2.10;;
12814;SDS011;6472;52.328;13.070;2023-09-30T08:32:36;8.93;;;2.77;;
12814;SDS011;6472;52.328;13.070;2023-09-30T08:35:05;5.73;;;2.10;;
12814;SDS011;6472;52.328;13.070;2023-09-30T08:37:35;8.23;;;2.13;;
12814;SDS011;6472;52.328;13.070;2023-09-30T08:40:04;5.00;;;2.10;;
12814;SDS011;6472;52.328;13.070;2023-09-30T08:42:36;6.03;;;2.20;;
12814;SDS011;6472;52.328;13.070;2023-09-30T08:45:08;7.23;;;2.20;;
12814;SDS011;6472;52.328;13.070;2023-09-30T08:47:41;7.17;;;3.03;;
12814;SDS011;6472;52.328;13.070;2023-09-30T08:50:09;4.80;;;2.17;;
12814;SDS011;6472;52.328;13.070;2023-09-30T08:52:40;10.07;;;3.22;;
12814;SDS011;6472;52.328;13.070;2023-09-30T08:55:10;6.95;;;2.50;;
12814;SDS011;6472;52.328;13.070;2023-09-30T08:57:41;5.20;;;1.90;;
12814;SDS011;6472;52.328;13.070;2023-09-30T09:00:10;8.48;;;2.00;;
12814;SDS011;6472;52.328;13.070;2023-09-30T09:02:40;5.70;;;2.30;;
12814;SDS011;6472;52.328;13.070;2023-09-30T09:05:09;12.02;;;2.75;;
12814;SDS011;6472;52.328;13.070;2023-09-30T09:07:39;10.20;;;3.00;;
12814;SDS011;6472;52.328;13.070;2023-09-30T09:10:10;6.72;;;2.63;;
12814;SDS011;6472;52.328;13.070;2023-09-30T09:12:41;8.98;;;2.65;;
12814;SDS011;6472;52.328;13.070;2023-09-30T09:15:19;6.60;;;2.00;;
12814;SDS011;6472;52.328;13.070;2023-09-30T09:17:49;4.72;;;1.92;;
12814;SDS011;6472;52.328;13.070;2023-09-30T09:20:19;7.05;;;1.98;;
12814;SDS011;6472;52.328;13.070;2023-09-30T09:22:50;6.85;;;1.80;;
12814;SDS011;6472;52.328;13.070;2023-09-30T09:25:20;7.00;;;2.08;;
12814;SDS011;6472;52.328;13.070;2023-09-30T09:27:50;4.70;;;1.60;;
12814;SDS011;6472;52.328;13.070;2023-09-30T09:30:20;8.70;;;2.17;;
12814;SDS011;6472;52.328;13.070;2023-09-30T09:32:53;7.03;;;1.98;;
12814;SDS011;6472;52.328;13.070;2023-09-30T09:35:22;5.43;;;2.22;;
12814;SDS011;6472;52.328;13.070;2023-09-30T09:37:59;4.82;;;2.33;;
12814;SDS011;6472;52.328;13.070;2023-09-30T09:40:29;8.48;;;2.33;;
12814;SDS011;6472;52.328;13.070;2023-09-30T09:42:58;9.82;;;2.75;;
12814;SDS011;6472;52.328;13.070;2023-09-30T09:45:32;6.20;;;2.17;;
12814;SDS011;6472;52.328;13.070;2023-09-30T09:48:01;6.47;;;2.40;;
12814;SDS011;6472;52.328;13.070;2023-09-30T09:50:31;7.93;;;2.38;;
12814;SDS011;6472;52.328;13.070;2023-09-30T09:53:01;5.43;;;2.20;;
12814;SDS011;6472;52.328;13.070;2023-09-30T09:55:31;10.68;;;2.15;;
12814;SDS011;6472;52.328;13.070;2023-09-30T09:58:01;7.50;;;2.03;;
12814;SDS011;6472;52.328;13.070;2023-09-30T10:00:30;4.93;;;1.92;;
12814;SDS011;6472;52.328;13.070;2023-09-30T10:03:00;6.60;;;2.25;;
12814;SDS011;6472;52.328;13.070;2023-09-30T10:05:30;5.10;;;1.45;;
12814;SDS011;6472;52.328;13.070;2023-09-30T10:08:01;6.30;;;2.20;;
12814;SDS011;6472;52.328;13.070;2023-09-30T10:10:35;4.28;;;1.77;;
12814;SDS011;6472;52.328;13.070;2023-09-30T10:13:04;5.68;;;2.05;;
12814;SDS011;6472;52.328;13.070;2023-09-30T10:15:36;4.53;;;1.83;;
12814;SDS011;6472;52.328;13.070;2023-09-30T10:18:06;8.73;;;1.90;;
12814;SDS011;6472;52.328;13.070;2023-09-30T10:20:41;12.75;;;2.45;;
12814;SDS011;6472;52.328;13.070;2023-09-30T10:23:19;3.97;;;1.38;;
12814;SDS011;6472;52.328;13.070;2023-09-30T10:25:49;6.63;;;2.13;;
12814;SDS011;6472;52.328;13.070;2023-09-30T10:28:37;7.93;;;2.60;;
12814;SDS011;6472;52.328;13.070;2023-09-30T10:31:07;4.88;;;2.13;;
12814;SDS011;6472;52.328;13.070;2023-09-30T10:33:36;9.55;;;2.72;;
12814;SDS011;6472;52.328;13.070;2023-09-30T10:36:35;3.10;;;1.60;;
12814;SDS011;6472;52.328;13.070;2023-09-30T10:39:10;4.30;;;1.75;;
12814;SDS011;6472;52.328;13.070;2023-09-30T10:41:49;5.65;;;2.42;;
12814;SDS011;6472;52.328;13.070;2023-09-30T10:44:33;4.28;;;1.63;;
12814;SDS011;6472;52.328;13.070;2023-09-30T10:53:08;6.25;;;1.73;;
12814;SDS011;6472;52.328;13.070;2023-09-30T10:55:38;5.57;;;1.98;;
12814;SDS011;6472;52.328;13.070;2023-09-30T10:58:09;4.28;;;1.73;;
12814;SDS011;6472;52.328;13.070;2023-09-30T11:00:36;6.03;;;2.10;;
12814;SDS011;6472;52.328;13.070;2023-09-30T11:03:05;9.27;;;2.30;;
12814;SDS011;6472;52.328;13.070;2023-09-30T11:05:34;3.67;;;1.70;;
12814;SDS011;6472;52.328;13.070;2023-09-30T11:08:22;6.53;;;1.70;;
12814;SDS011;6472;52.328;13.070;2023-09-30T11:11:08;2.72;;;1.45;;
12814;SDS011;6472;52.328;13.070;2023-09-30T11:13:36;7.78;;;1.85;;
12814;SDS011;6472;52.328;13.070;2023-09-30T11:16:05;5.35;;;1.73;;
12814;SDS011;6472;52.328;13.070;2023-09-30T11:18:35;8.07;;;1.60;;
12814;SDS011;6472;52.328;13.070;2023-09-30T11:21:05;3.47;;;1.35;;
12814;SDS011;6472;52.328;13.070;2023-09-30T11:23:35;4.97;;;2.08;;
12814;SDS011;6472;52.328;13.070;2023-09-30T11:26:03;4.90;;;1.85;;
12814;SDS011;6472;52.328;13.070;2023-09-30T11:28:36;3.83;;;1.35;;
12814;SDS011;6472;52.328;13.070;2023-09-30T11:31:09;5.18;;;1.65;;
12814;SDS011;6472;52.328;13.070;2023-09-30T11:33:53;7.50;;;2.42;;
12814;SDS011;6472;52.328;13.070;2023-09-30T11:36:24;9.10;;;2.35;;
12814;SDS011;6472;52.328;13.070;2023-09-30T11:38:52;5.18;;;1.40;;
12814;SDS011;6472;52.328;13.070;2023-09-30T11:41:20;5.85;;;1.33;;
12814;SDS011;6472;52.328;13.070;2023-09-30T11:44:00;5.43;;;1.83;;
12814;SDS011;6472;52.328;13.070;2023-09-30T11:46:31;4.40;;;1.30;;
12814;SDS011;6472;52.328;13.070;2023-09-30T11:49:01;7.65;;;1.42;;
12814;SDS011;6472;52.328;13.070;2023-09-30T11:51:41;7.90;;;1.83;;
12814;SDS011;6472;52.328;13.070;2023-09-30T11:54:13;4.70;;;1.65;;
12814;SDS011;6472;52.328;13.070;2023-09-30T11:56:42;4.13;;;1.05;;
12814;SDS011;6472;52.328;13.070;2023-09-30T11:59:12;6.47;;;1.33;;
12814;SDS011;6472;52.328;13.070;2023-09-30T12:01:40;5.22;;;1.35;;
12814;SDS011;6472;52.328;13.070;2023-09-30T12:04:15;6.93;;;2.97;;
12814;SDS011;6472;52.328;13.070;2023-09-30T12:06:45;2.90;;;2.05;;
12814;SDS011;6472;52.328;13.070;2023-09-30T12:09:14;5.28;;;1.58;;
12814;SDS011;6472;52.328;13.070;2023-09-30T12:11:48;5.57;;;1.48;;
12814;SDS011;6472;52.328;13.070;2023-09-30T12:14:18;2.75;;;1.42;;
12814;SDS011;6472;52.328;13.070;2023-09-30T12:16:46;5.10;;;1.08;;
12814;SDS011;6472;52.328;13.070;2023-09-30T12:19:15;4.55;;;0.85;;
12814;SDS011;6472;52.328;13.070;2023-09-30T12:21:44;2.67;;;1.45;;
12814;SDS011;6472;52.328;13.070;2023-09-30T12:24:15;4.25;;;1.33;;
12814;SDS011;6472;52.328;13.070;2023-09-30T12:26:43;7.22;;;2.17;;
12814;SDS011;6472;52.328;13.070;2023-09-30T12:29:14;4.38;;;1.48;;
12814;SDS011;6472;52.328;13.070;2023-09-30T12:31:45;3.20;;;1.27;;
12814;SDS011;6472;52.328;13.070;2023-09-30T12:34:19;2.58;;;1.52;;
12814;SDS011;6472;52.328;13.070;2023-09-30T12:36:49;2.78;;;0.93;;
12814;SDS011;6472;52.328;13.070;2023-09-30T12:39:18;4.05;;;1.27;;
12814;SDS011;6472;52.328;13.070;2023-09-30T12:41:51;2.10;;;0.75;;
12814;SDS011;6472;52.328;13.070;2023-09-30T12:44:19;2.97;;;1.48;;
12814;SDS011;6472;52.328;13.070;2023-09-30T12:46:51;1.52;;;0.95;;
12814;SDS011;6472;52.328;13.070;2023-09-30T12:49:19;2.17;;;1.13;;
12814;SDS011;6472;52.328;13.070;2023-09-30T12:51:47;4.15;;;1.38;;
12814;SDS011;6472;52.328;13.070;2023-09-30T12:54:17;2.13;;;1.10;;
12814;SDS011;6472;52.328;13.070;2023-09-30T12:56:45;4.00;;;1.45;;
12814;SDS011;6472;52.328;13.070;2023-09-30T12:59:14;1.63;;;0.95;;
12814;SDS011;6472;52.328;13.070;2023-09-30T13:01:42;3.45;;;1.40;;
12814;SDS011;6472;52.328;13.070;2023-09-30T13:04:12;5.50;;;1.13;;
12814;SDS011;6472;52.328;13.070;2023-09-30T13:06:41;4.07;;;1.02;;
12814;SDS011;6472;52.328;13.070;2023-09-30T13:09:09;2.70;;;1.30;;
12814;SDS011;6472;52.328;13.070;2023-09-30T13:11:38;6.63;;;1.38;;
12814;SDS011;6472;52.328;13.070;2023-09-30T13:14:06;4.30;;;1.30;;
12814;SDS011;6472;52.328;13.070;2023-09-30T13:16:34;1.58;;;0.90;;
12814;SDS011;6472;52.328;13.070;2023-09-30T13:19:02;3.90;;;1.38;;
12814;SDS011;6472;52.328;13.070;2023-09-30T13:21:31;2.95;;;1.10;;
12814;SDS011;6472;52.328;13.070;2023-09-30T13:23:59;3.05;;;1.33;;
12814;SDS011;6472;52.328;13.070;2023-09-30T13:26:27;2.03;;;0.80;;
12814;SDS011;6472;52.328;13.070;2023-09-30T13:28:56;3.20;;;0.82;;
12814;SDS011;6472;52.328;13.070;2023-09-30T13:31:25;2.35;;;0.77;;
12814;SDS011;6472;52.328;13.070;2023-09-30T13:33:53;3.63;;;1.00;;
12814;SDS011;6472;52.328;13.070;2023-09-30T13:36:21;3.00;;;1.25;;
12814;SDS011;6472;52.328;13.070;2023-09-30T13:38:50;4.22;;;1.42;;
12814;SDS011;6472;52.328;13.070;2023-09-30T13:41:19;4.63;;;1.23;;
12814;SDS011;6472;52.328;13.070;2023-09-30T13:43:47;5.30;;;0.82;;
12814;SDS011;6472;52.328;13.070;2023-09-30T13:46:15;4.95;;;1.35;;
12814;SDS011;6472;52.328;13.070;2023-09-30T13:48:43;3.22;;;0.95;;
12814;SDS011;6472;52.328;13.070;2023-09-30T13:51:11;2.92;;;1.10;;
12814;SDS011;6472;52.328;13.070;2023-09-30T13:53:39;2.83;;;0.93;;
12814;SDS011;6472;52.328;13.070;2023-09-30T13:56:10;4.28;;;1.20;;
12814;SDS011;6472;52.328;13.070;2023-09-30T13:58:38;2.42;;;0.90;;
12814;SDS011;6472;52.328;13.070;2023-09-30T14:01:08;3.15;;;1.17;;
12814;SDS011;6472;52.328;13.070;2023-09-30T14:03:37;2.83;;;0.90;;
12814;SDS011;6472;52.328;13.070;2023-09-30T14:06:09;3.97;;;1.40;;
12814;SDS011;6472;52.328;13.070;2023-09-30T14:08:38;2.38;;;0.80;;
12814;SDS011;6472;52.328;13.070;2023-09-30T14:11:09;2.33;;;0.80;;
12814;SDS011;6472;52.328;13.070;2023-09-30T14:13:38;3.72;;;1.27;;
12814;SDS011;6472;52.328;13.070;2023-09-30T14:16:06;3.17;;;0.93;;
12814;SDS011;6472;52.328;13.070;2023-09-30T14:18:35;4.47;;;0.90;;
12814;SDS011;6472;52.328;13.070;2023-09-30T14:21:05;1.63;;;1.25;;
12814;SDS011;6472;52.328;13.070;2023-09-30T14:23:33;2.03;;;0.90;;
12814;SDS011;6472;52.328;13.070;2023-09-30T14:26:05;2.45;;;1.00;;
12814;SDS011;6472;52.328;13.070;2023-09-30T14:28:38;2.25;;;1.00;;
12814;SDS011;6472;52.328;13.070;2023-09-30T14:31:07;2.67;;;1.00;;
12814;SDS011;6472;52.328;13.070;2023-09-30T14:33:35;5.03;;;1.08;;
12814;SDS011;6472;52.328;13.070;2023-09-30T14:36:03;1.35;;;1.08;;
12814;SDS011;6472;52.328;13.070;2023-09-30T14:38:32;4.32;;;1.00;;
12814;SDS011;6472;52.328;13.070;2023-09-30T14:41:00;1.73;;;1.10;;
12814;SDS011;6472;52.328;13.070;2023-09-30T14:43:28;2.75;;;1.20;;
12814;SDS011;6472;52.328;13.070;2023-09-30T14:46:00;5.95;;;1.45;;
12814;SDS011;6472;52.328;13.070;2023-09-30T14:48:28;4.50;;;1.75;;
12814;SDS011;6472;52.328;13.070;2023-09-30T14:50:57;1.50;;;1.00;;
12814;SDS011;6472;52.328;13.070;2023-09-30T14:53:25;4.65;;;1.20;;
12814;SDS011;6472;52.328;13.070;2023-09-30T14:55:53;3.45;;;1.33;;
12814;SDS011;6472;52.328;13.070;2023-09-30T14:58:21;6.43;;;1.73;;
12814;SDS011;6472;52.328;13.070;2023-09-30T15:00:49;3.50;;;1.20;;
12814;SDS011;6472;52.328;13.070;2023-09-30T15:03:18;1.90;;;1.10;;
12814;SDS011;6472;52.328;13.070;2023-09-30T15:05:47;2.00;;;1.08;;
12814;SDS011;6472;52.328;13.070;2023-09-30T15:08:16;4.25;;;1.40;;